Bourbonnais, Illinois
Current Conditions -  °F | °C
As of 7:15 PM on Saturday 25 Oct 2014 (Local Time) from KIKK Reporting Station
Clear Clear  
Wind Chill: 60°   Ceiling: Unl
Heat Index: 60°   Visibility: 10mi
Dew Point: 35°   Wind: 7mph
Humidity: 39%   Direction: 270°W
Pressure: 29.96"   Gusts: NA
Location:  41.15°N, 87.88°W
Report Text: KIKK 260015Z AUTO 27006KT 10SM CLR 16/02 A2996 RMK AO2 T01570019
Loading
Personal Weather Stations






























Interactive Weather Map
Tropical Storm Tracking
New forecast layout! Learn more

10-Day Weather Forecast

Advertisements
Track Severe Weather on mobile